Time;durP1;ratioP1;P1;durP2;ratioP2;P2;SDS_P1;SDS_P2;PMS_P1;PMS_P2;Temp;Humidity;BMP_temperature;BMP_pressure;BME280_temperature;BME280_humidity;BME280_pressure;Samples;Min_cycle;Max_cycle;Signal;HPM_P1;HPM_P2
2021/05/16 00:01:51;;;;;;;13.70;7.80;;;;;;;12.44;71.39;99550.99;104224;1101;80017;-62
2021/05/16 00:03:57;;;;;;;11.20;8.60;;;;;;;12.42;71.47;99553.07;104223;1102;80613;-61
2021/05/16 00:06:03;;;;;;;8.70;7.50;;;;;;;12.46;71.43;99558.88;104230;1101;79932;-61
2021/05/16 00:08:10;;;;;;;13.40;8.70;;;;;;;12.42;71.74;99563.91;104244;1100;80449;-61
2021/05/16 00:10:18;;;;;;;10.60;8.60;;;;;;;12.42;71.99;99566.61;104286;1100;79294;-62
2021/05/16 00:12:24;;;;;;;12.80;8.10;;;;;;;12.39;72.01;99567.05;104238;1101;79314;-62
2021/05/16 00:14:30;;;;;;;8.90;7.50;;;;;;;12.41;71.90;99568.48;104207;1100;80484;-61
2021/05/16 00:16:37;;;;;;;7.70;6.80;;;;;;;12.44;72.11;99568.05;104203;1101;79941;-62
2021/05/16 00:18:43;;;;;;;10.60;7.80;;;;;;;12.46;72.31;99575.14;104253;1100;79530;-62
2021/05/16 00:20:49;;;;;;;11.70;8.70;;;;;;;12.50;72.36;99577.17;104235;1102;79190;-69
2021/05/16 00:22:55;;;;;;;11.80;8.50;;;;;;;12.50;72.44;99576.37;104254;1100;79675;-69
2021/05/16 00:25:01;;;;;;;12.30;8.60;;;;;;;12.52;72.60;99576.97;104251;1100;80716;-69
2021/05/16 00:27:08;;;;;;;10.30;8.20;;;;;;;12.48;72.52;99573.02;104215;1101;80825;-68
2021/05/16 00:29:13;;;;;;;9.50;7.70;;;;;;;12.43;72.57;99566.41;104196;1100;80809;-68
2021/05/16 00:31:19;;;;;;;10.40;8.20;;;;;;;12.40;72.71;99568.72;104222;1101;81590;-69
2021/05/16 00:33:25;;;;;;;10.50;7.90;;;;;;;12.36;72.83;99565.62;104257;1099;79368;-69
2021/05/16 00:35:33;;;;;;;11.00;8.20;;;;;;;12.33;72.95;99560.64;104235;1100;81047;-69
2021/05/16 00:37:38;;;;;;;9.10;7.90;;;;;;;12.31;72.80;99551.08;104236;1101;79972;-69
2021/05/16 00:39:44;;;;;;;10.80;7.70;;;;;;;12.30;72.89;99554.86;104217;1101;80661;-70
2021/05/16 00:41:50;;;;;;;10.70;8.00;;;;;;;12.27;73.10;99550.72;104213;1101;80235;-69
2021/05/16 00:43:59;;;;;;;9.20;8.20;;;;;;;12.25;73.09;99558.20;104194;1101;81719;-69
2021/05/16 00:46:09;;;;;;;9.70;8.40;;;;;;;12.22;73.42;99552.42;104227;1101;79019;-61
2021/05/16 00:48:15;;;;;;;9.70;7.70;;;;;;;12.17;73.60;99544.11;104237;1101;80118;-61
2021/05/16 00:50:25;;;;;;;9.80;8.10;;;;;;;12.15;73.79;99547.05;104243;1101;80469;-70
2021/05/16 00:52:31;;;;;;;8.70;7.30;;;;;;;12.13;73.84;99545.61;104236;1101;80092;-69
2021/05/16 00:54:36;;;;;;;9.60;8.20;;;;;;;12.10;73.88;99538.77;104204;1102;80227;-61
2021/05/16 00:56:42;;;;;;;8.60;7.70;;;;;;;12.11;74.10;99540.44;104247;1101;81577;-61
2021/05/16 00:58:48;;;;;;;8.60;7.50;;;;;;;12.07;74.20;99539.20;104211;1100;81042;-61
2021/05/16 01:00:57;;;;;;;9.60;7.80;;;;;;;12.02;74.40;99536.33;104220;1100;81663;-61
2021/05/16 01:03:03;;;;;;;7.70;6.70;;;;;;;12.00;74.61;99532.19;104236;1101;81535;-61
2021/05/16 01:05:16;;;;;;;8.60;7.70;;;;;;;11.97;74.72;99533.45;104226;1100;78671;-69
2021/05/16 01:07:22;;;;;;;8.90;8.00;;;;;;;11.94;74.66;99533.89;104236;1102;80657;-69
2021/05/16 01:09:28;;;;;;;7.80;7.10;;;;;;;11.97;74.61;99525.34;104221;1101;80071;-69
2021/05/16 01:11:34;;;;;;;8.20;7.40;;;;;;;11.99;74.80;99520.53;104245;1101;79970;-69
2021/05/16 01:13:40;;;;;;;10.40;8.40;;;;;;;11.98;74.97;99521.56;104235;1101;80910;-69
2021/05/16 01:15:47;;;;;;;8.50;7.60;;;;;;;11.98;74.94;99524.27;104260;1101;80461;-61
2021/05/16 01:17:54;;;;;;;9.00;8.10;;;;;;;11.99;75.01;99525.10;104201;1100;80078;-61
2021/05/16 01:20:03;;;;;;;8.70;7.80;;;;;;;11.98;75.16;99518.86;104218;1100;80756;-69
2021/05/16 01:22:12;;;;;;;10.20;8.10;;;;;;;12.05;75.17;99522.36;104232;1101;80864;-69
2021/05/16 01:24:22;;;;;;;8.60;7.80;;;;;;;12.06;75.16;99513.17;104231;1101;80148;-68
2021/05/16 01:26:28;;;;;;;10.10;8.00;;;;;;;12.03;75.35;99518.22;104233;1101;79969;-69
2021/05/16 01:28:33;;;;;;;8.50;7.60;;;;;;;12.00;75.49;99521.36;104227;1101;79169;-69
2021/05/16 01:30:40;;;;;;;9.10;8.00;;;;;;;11.98;75.46;99523.44;104204;1100;80618;-61
2021/05/16 01:32:46;;;;;;;8.40;7.60;;;;;;;11.96;75.52;99520.96;104227;1101;81464;-62
2021/05/16 01:34:53;;;;;;;9.50;7.80;;;;;;;11.98;75.55;99518.86;104203;1101;79343;-62
2021/05/16 01:36:58;;;;;;;9.50;8.50;;;;;;;11.98;75.77;99515.31;104232;1101;80851;-61
2021/05/16 01:39:08;;;;;;;9.40;8.00;;;;;;;11.95;75.75;99518.48;104181;1101;79433;-68
2021/05/16 01:41:17;;;;;;;10.20;8.00;;;;;;;11.98;75.80;99509.90;104244;1101;80156;-69
2021/05/16 01:43:26;;;;;;;9.20;8.30;;;;;;;11.98;75.88;99518.86;104188;1101;81108;-69
2021/05/16 01:45:31;;;;;;;8.90;8.10;;;;;;;11.99;75.98;99515.11;104240;1100;80553;-70
2021/05/16 01:47:37;;;;;;;9.30;8.00;;;;;;;11.95;75.87;99519.30;104232;1100;81637;-69
2021/05/16 01:49:48;;;;;;;8.80;8.00;;;;;;;11.95;75.89;99515.78;104224;1101;79162;-69
2021/05/16 01:51:54;;;;;;;8.40;7.60;;;;;;;11.98;76.13;99518.02;104243;1101;80502;-70
2021/05/16 01:54:05;;;;;;;7.90;7.00;;;;;;;11.95;76.10;99513.88;104229;1100;79568;-64
2021/05/16 01:56:20;;;;;;;8.20;7.50;;;;;;;11.92;76.16;99519.73;104193;1101;81656;-72
2021/05/16 01:58:28;;;;;;;10.20;8.90;;;;;;;11.90;76.11;99513.71;104269;1101;79917;-70
2021/05/16 02:00:37;;;;;;;8.70;7.80;;;;;;;11.92;76.10;99508.90;104226;1100;78752;-60
2021/05/16 02:02:44;;;;;;;8.40;7.60;;;;;;;11.90;76.20;99508.30;104229;1101;80049;-60
2021/05/16 02:04:50;;;;;;;9.10;7.70;;;;;;;11.87;76.33;99502.52;104218;1102;79433;-61
2021/05/16 02:07:00;;;;;;;9.10;7.60;;;;;;;11.88;76.34;99504.16;104217;1102;80737;-61
2021/05/16 02:09:07;;;;;;;9.10;8.10;;;;;;;11.89;76.36;99506.66;104242;1101;81148;-61
2021/05/16 02:11:15;;;;;;;8.90;8.00;;;;;;;11.84;76.49;99496.47;104212;1101;80309;-61
2021/05/16 02:13:22;;;;;;;9.20;7.70;;;;;;;11.86;76.58;99503.56;104225;1101;80769;-60
2021/05/16 02:15:28;;;;;;;11.80;8.30;;;;;;;11.83;76.62;99504.83;104238;1101;80024;-61
2021/05/16 02:17:34;;;;;;;9.30;7.60;;;;;;;11.84;76.79;99498.34;104224;1101;80316;-61
2021/05/16 02:19:40;;;;;;;9.40;8.20;;;;;;;11.90;76.80;99493.94;104260;1100;80863;-68
2021/05/16 02:21:46;;;;;;;8.30;7.60;;;;;;;11.91;76.65;99491.02;104264;1101;80134;-69
2021/05/16 02:23:52;;;;;;;9.90;8.60;;;;;;;11.89;76.69;99495.00;104239;1101;80262;-68
2021/05/16 02:25:58;;;;;;;9.60;8.20;;;;;;;11.84;76.95;99498.34;104221;1100;81059;-69
2021/05/16 02:28:05;;;;;;;9.10;8.30;;;;;;;11.82;76.92;99490.46;104229;1101;79692;-69
2021/05/16 02:30:14;;;;;;;8.80;7.90;;;;;;;11.83;76.84;99494.84;104259;1100;80059;-69
2021/05/16 02:32:20;;;;;;;9.30;7.90;;;;;;;11.81;76.98;99496.11;104266;1101;81022;-68
2021/05/16 02:34:26;;;;;;;9.00;8.10;;;;;;;11.78;77.09;99496.55;104250;1101;79528;-68
2021/05/16 02:36:33;;;;;;;9.20;8.30;;;;;;;11.78;77.20;99491.13;104268;1101;79989;-68
2021/05/16 02:38:38;;;;;;;9.40;8.50;;;;;;;11.79;77.14;99492.77;104221;1101;80250;-69
2021/05/16 02:40:44;;;;;;;8.80;7.90;;;;;;;11.80;77.26;99497.14;104215;1101;81133;-69
2021/05/16 02:42:49;;;;;;;11.50;8.60;;;;;;;11.79;77.23;99490.06;104231;1101;81250;-69
2021/05/16 02:44:55;;;;;;;10.80;9.00;;;;;;;11.77;77.33;99500.28;104232;1100;80202;-69
2021/05/16 02:47:02;;;;;;;9.30;8.40;;;;;;;11.74;77.51;99490.73;104207;1101;81701;-69
2021/05/16 02:49:08;;;;;;;9.50;8.60;;;;;;;11.77;77.30;99494.88;104240;1101;80845;-62
2021/05/16 02:51:14;;;;;;;9.10;8.20;;;;;;;11.82;77.51;99492.33;104228;1100;79713;-61
2021/05/16 02:53:21;;;;;;;10.60;9.60;;;;;;;11.84;77.56;99491.06;104264;1101;80813;-61
2021/05/16 02:55:26;;;;;;;10.30;9.30;;;;;;;11.86;77.50;99493.56;104231;1101;80901;-61
2021/05/16 02:57:32;;;;;;;12.30;10.00;;;;;;;11.87;77.62;99488.98;104220;1100;80575;-61
2021/05/16 02:59:38;;;;;;;10.40;8.70;;;;;;;11.85;77.63;99486.48;104218;1100;81782;-69
2021/05/16 03:01:44;;;;;;;9.80;8.90;;;;;;;11.83;77.63;99488.59;104204;1101;80576;-69
2021/05/16 03:03:50;;;;;;;10.30;9.00;;;;;;;11.80;77.63;99491.73;104220;1101;79491;-69
2021/05/16 03:05:56;;;;;;;10.40;9.50;;;;;;;11.82;77.52;99501.28;104200;1100;80493;-68
2021/05/16 03:08:02;;;;;;;11.20;10.00;;;;;;;11.84;77.75;99493.77;104224;1101;80303;-69
2021/05/16 03:10:10;;;;;;;10.60;9.50;;;;;;;11.84;77.68;99495.64;104274;1101;80081;-70
2021/05/16 03:12:17;;;;;;;11.50;9.50;;;;;;;11.82;77.55;99495.88;104221;1100;80755;-69
2021/05/16 03:14:23;;;;;;;11.40;10.30;;;;;;;11.82;77.73;99493.17;104265;1100;80929;-61
2021/05/16 03:16:28;;;;;;;10.80;9.70;;;;;;;11.80;77.79;99494.44;104223;1101;79141;-61
2021/05/16 03:18:34;;;;;;;12.80;11.10;;;;;;;11.84;77.75;99492.94;104234;1101;79704;-59
2021/05/16 03:20:40;;;;;;;14.00;11.70;;;;;;;11.87;77.71;99489.79;104201;1101;80015;-68
2021/05/16 03:22:46;;;;;;;13.40;12.10;;;;;;;11.96;77.61;99501.18;104206;1101;80936;-69
2021/05/16 03:24:51;;;;;;;13.50;12.30;;;;;;;11.99;77.54;99490.75;104218;1101;81358;-68
2021/05/16 03:27:00;;;;;;;14.10;12.70;;;;;;;12.04;77.48;99484.66;104231;1101;80203;-70
2021/05/16 03:29:06;;;;;;;14.70;12.40;;;;;;;12.08;77.38;99484.02;104210;1101;79990;-62
2021/05/16 03:31:12;;;;;;;15.30;12.80;;;;;;;12.12;77.42;99478.97;104215;1101;79998;-61
2021/05/16 03:33:18;;;;;;;14.60;12.70;;;;;;;12.12;77.37;99482.52;104230;1101;80966;-61
2021/05/16 03:35:26;;;;;;;14.50;12.20;;;;;;;12.12;77.37;99479.80;104267;1101;79119;-69
2021/05/16 03:37:32;;;;;;;14.80;12.60;;;;;;;12.24;77.33;99486.16;104203;1101;79707;-69
2021/05/16 03:39:38;;;;;;;14.50;12.90;;;;;;;12.25;77.46;99497.83;104239;1101;80848;-68
2021/05/16 03:41:44;;;;;;;15.00;12.70;;;;;;;12.30;77.44;99490.70;104228;1101;79368;-69
2021/05/16 03:43:50;;;;;;;14.10;12.50;;;;;;;12.29;77.68;99496.32;104228;1101;80486;-69
2021/05/16 03:45:55;;;;;;;17.20;13.00;;;;;;;12.31;77.62;99496.92;104210;1101;80815;-61
2021/05/16 03:48:01;;;;;;;12.90;11.60;;;;;;;12.34;77.58;99501.89;104239;1101;81159;-61
2021/05/16 03:50:11;;;;;;;14.30;12.70;;;;;;;12.39;77.71;99554.34;104225;1101;79516;-69
2021/05/16 03:52:19;;;;;;;12.80;11.30;;;;;;;12.41;77.66;99568.48;104253;1101;80559;-69
2021/05/16 03:54:26;;;;;;;14.90;11.70;;;;;;;12.43;77.56;99550.16;104248;1101;80941;-69
2021/05/16 03:56:37;;;;;;;15.60;11.60;;;;;;;12.44;77.54;99546.38;104228;1101;80210;-69
2021/05/16 03:58:43;;;;;;;15.50;11.90;;;;;;;12.48;77.31;99568.44;104205;1101;80812;-69
2021/05/16 04:00:48;;;;;;;12.40;10.40;;;;;;;12.42;77.57;99567.45;104205;1100;80840;-61
2021/05/16 04:02:54;;;;;;;15.40;11.50;;;;;;;12.41;77.50;99552.23;104248;1101;80796;-61
2021/05/16 04:05:00;;;;;;;13.50;11.30;;;;;;;12.41;77.44;99546.02;104215;1101;81662;-61
2021/05/16 04:07:09;;;;;;;13.20;11.20;;;;;;;12.44;77.42;99543.67;104230;1101;81011;-60
2021/05/16 04:09:14;;;;;;;11.60;10.40;;;;;;;12.50;77.35;99533.02;104209;1101;79698;-67
2021/05/16 04:11:21;;;;;;;13.80;11.50;;;;;;;12.48;77.39;99529.68;104208;1101;81053;-68
2021/05/16 04:13:26;;;;;;;12.60;11.00;;;;;;;12.44;77.24;99524.70;104208;1101;80167;-68
2021/05/16 04:15:32;;;;;;;15.10;11.70;;;;;;;12.50;77.14;99530.31;104257;1100;81555;-68
2021/05/16 04:17:38;;;;;;;12.40;11.10;;;;;;;12.51;77.26;99530.08;104215;1101;81023;-68
2021/05/16 04:19:44;;;;;;;13.80;11.30;;;;;;;12.49;77.40;99531.35;104227;1100;80874;-67
2021/05/16 04:21:50;;;;;;;11.90;10.70;;;;;;;12.52;77.20;99520.91;104217;1101;80736;-68
2021/05/16 04:23:57;;;;;;;12.30;10.90;;;;;;;12.65;77.06;99512.64;104247;1101;80395;-70
2021/05/16 04:26:06;;;;;;;14.60;11.20;;;;;;;12.75;77.04;99509.39;104245;1101;79045;-68
2021/05/16 04:28:12;;;;;;;14.30;11.40;;;;;;;12.90;76.92;99505.28;104228;1101;80901;-69
2021/05/16 04:30:20;;;;;;;13.70;10.70;;;;;;;13.05;76.94;99504.08;104238;1100;79946;-60
2021/05/16 04:32:26;;;;;;;11.40;10.10;;;;;;;13.21;76.76;99500.77;104231;1101;80631;-60
2021/05/16 04:34:32;;;;;;;14.40;10.80;;;;;;;13.32;76.70;99494.58;104232;1101;79989;-61
2021/05/16 04:36:37;;;;;;;13.50;11.20;;;;;;;13.31;76.88;99493.74;104226;1101;79457;-61
2021/05/16 04:38:48;;;;;;;12.10;10.90;;;;;;;13.44;76.69;99482.70;104228;1101;80608;-61
2021/05/16 04:40:53;;;;;;;12.30;10.40;;;;;;;13.54;76.40;99480.26;104213;1100;80846;-69
2021/05/16 04:42:59;;;;;;;11.60;10.20;;;;;;;13.58;76.07;99477.91;104211;1100;79984;-69
2021/05/16 04:45:11;;;;;;;10.90;9.80;;;;;;;13.65;76.13;99483.27;104227;1101;81322;-61
2021/05/16 04:47:17;;;;;;;12.50;10.40;;;;;;;13.68;75.81;99490.94;104230;1101;79077;-61
2021/05/16 04:49:24;;;;;;;13.20;10.20;;;;;;;13.70;75.79;99489.66;104209;1101;78959;-69
2021/05/16 04:51:29;;;;;;;11.60;10.10;;;;;;;13.68;75.81;99482.80;104239;1101;80478;-69
2021/05/16 04:53:36;;;;;;;10.70;9.40;;;;;;;13.67;75.87;99486.56;104234;1100;79816;-70
2021/05/16 04:55:42;;;;;;;10.60;9.60;;;;;;;13.72;75.86;99483.98;104222;1101;79021;-62
2021/05/16 04:57:50;;;;;;;11.00;9.90;;;;;;;13.72;75.60;99476.67;104223;1101;81182;-62
2021/05/16 04:59:57;;;;;;;11.80;10.20;;;;;;;13.74;75.47;99473.70;104254;1101;79915;-70
2021/05/16 05:02:06;;;;;;;10.50;9.50;;;;;;;13.73;75.59;99475.62;104226;1101;78955;-69
2021/05/16 05:04:12;;;;;;;11.30;10.10;;;;;;;13.77;75.60;99473.24;104248;1101;80703;-62
2021/05/16 05:06:20;;;;;;;9.90;8.80;;;;;;;13.78;75.62;99461.34;104233;1100;79884;-62
2021/05/16 05:08:26;;;;;;;12.20;10.30;;;;;;;13.80;75.52;99459.21;104224;1100;81270;-62
2021/05/16 05:10:32;;;;;;;11.00;9.60;;;;;;;13.85;75.52;99457.45;104218;1101;79549;-62
2021/05/16 05:12:38;;;;;;;11.20;10.00;;;;;;;13.91;75.56;99452.98;104224;1101;79412;-62
2021/05/16 05:14:43;;;;;;;11.70;9.30;;;;;;;13.97;75.57;99449.33;104232;1100;80583;-62
2021/05/16 05:16:49;;;;;;;13.10;10.40;;;;;;;14.01;75.66;99455.93;104237;1100;80691;-62
2021/05/16 05:18:56;;;;;;;11.50;10.30;;;;;;;14.14;75.85;99447.58;104228;1100;81231;-62
2021/05/16 05:21:07;;;;;;;13.10;10.60;;;;;;;14.40;76.33;99458.00;104239;1101;78932;-70
2021/05/16 05:23:13;;;;;;;12.10;10.70;;;;;;;15.58;76.68;99452.02;104237;1101;80065;-70
2021/05/16 05:25:19;;;;;;;11.80;9.90;;;;;;;16.08;75.10;99454.80;104252;1100;80115;-62
2021/05/16 05:27:25;;;;;;;10.30;9.20;;;;;;;15.99;74.39;99453.58;104230;1101;79774;-62
2021/05/16 05:29:30;;;;;;;11.20;9.70;;;;;;;15.89;73.82;99455.05;104249;1101;80250;-61
2021/05/16 05:31:37;;;;;;;11.20;9.90;;;;;;;15.86;73.67;99458.27;104233;1100;80488;-61
2021/05/16 05:33:43;;;;;;;11.20;10.10;;;;;;;15.82;73.50;99459.81;104211;1101;80786;-61
2021/05/16 05:35:49;;;;;;;10.90;9.80;;;;;;;15.75;73.13;99456.44;104201;1101;81213;-61
2021/05/16 05:37:54;;;;;;;11.20;10.00;;;;;;;15.70;73.05;99453.63;104249;1101;79171;-61
2021/05/16 05:40:00;;;;;;;10.40;9.40;;;;;;;15.78;73.05;99457.84;104264;1101;81130;-61
2021/05/16 05:42:07;;;;;;;10.70;9.70;;;;;;;15.73;73.09;99463.20;104232;1101;79060;-61
2021/05/16 05:44:15;;;;;;;13.80;9.50;;;;;;;15.75;72.83;99467.33;104266;1100;80504;-69
2021/05/16 05:46:21;;;;;;;9.50;8.60;;;;;;;15.64;72.68;99468.22;104223;1101;79330;-70
2021/05/16 05:48:27;;;;;;;9.60;8.70;;;;;;;15.60;72.65;99458.88;104231;1100;79850;-69
2021/05/16 05:50:33;;;;;;;9.10;7.90;;;;;;;15.56;72.36;99470.50;104272;1100;78974;-62
2021/05/16 05:52:40;;;;;;;9.80;8.80;;;;;;;15.40;72.42;99468.53;104236;1101;81152;-62
2021/05/16 05:54:48;;;;;;;10.20;7.90;;;;;;;15.31;72.53;99458.04;104228;1100;81091;-69
2021/05/16 05:56:54;;;;;;;9.30;8.30;;;;;;;15.29;72.76;99459.36;104220;1101;79158;-69
2021/05/16 05:59:04;;;;;;;10.60;8.70;;;;;;;15.31;72.53;99468.09;104222;1101;81014;-65
2021/05/16 06:01:10;;;;;;;9.70;8.20;;;;;;;15.32;72.67;99467.03;104214;1101;81417;-70
2021/05/16 06:03:17;;;;;;;9.90;8.90;;;;;;;15.37;72.51;99467.13;104214;1101;80049;-70
2021/05/16 06:05:25;;;;;;;10.40;8.90;;;;;;;15.52;72.59;99469.36;104239;1101;81643;-62
2021/05/16 06:07:32;;;;;;;9.30;8.20;;;;;;;15.56;72.45;99471.34;104256;1100;80204;-61
2021/05/16 06:09:38;;;;;;;9.10;8.20;;;;;;;15.65;72.33;99469.88;104219;1101;78747;-69
2021/05/16 06:11:43;;;;;;;11.10;9.00;;;;;;;15.63;72.37;99465.75;104212;1101;81277;-69
2021/05/16 06:13:49;;;;;;;10.00;8.80;;;;;;;15.64;72.46;99475.55;104232;1101;79667;-69
2021/05/16 06:15:56;;;;;;;9.20;8.30;;;;;;;15.73;72.15;99468.65;104215;1101;80462;-61
2021/05/16 06:18:02;;;;;;;12.10;8.90;;;;;;;15.97;72.01;99477.49;104156;1102;79834;-62
2021/05/16 06:20:14;;;;;;;12.10;8.50;;;;;;;16.24;72.13;99473.03;104222;1101;79757;-69
2021/05/16 06:22:20;;;;;;;10.50;8.70;;;;;;;16.55;71.86;99468.91;104247;1101;80230;-70
2021/05/16 06:24:26;;;;;;;9.60;8.60;;;;;;;16.91;71.12;99468.33;104245;1101;80890;-70
2021/05/16 06:26:38;;;;;;;9.80;8.70;;;;;;;17.07;70.76;99461.98;104241;1101;79748;-69
2021/05/16 06:28:44;;;;;;;8.60;7.80;;;;;;;17.21;70.29;99460.52;104266;1100;80813;-69
2021/05/16 06:30:50;;;;;;;8.40;7.60;;;;;;;16.96;69.94;99461.03;104234;1101;79292;-69
2021/05/16 06:32:56;;;;;;;10.80;8.30;;;;;;;16.98;70.03;99466.23;104210;1101;81456;-69
2021/05/16 06:35:02;;;;;;;9.30;8.40;;;;;;;16.98;69.58;99464.33;104278;1101;80066;-70
2021/05/16 06:37:08;;;;;;;9.90;8.90;;;;;;;16.83;69.31;99466.88;104275;1101;80488;-69
2021/05/16 06:39:14;;;;;;;9.20;8.20;;;;;;;16.84;69.19;99465.78;104241;1101;79340;-61
2021/05/16 06:41:21;;;;;;;8.50;7.60;;;;;;;17.04;69.42;99467.95;104236;1101;81132;-61
2021/05/16 06:43:28;;;;;;;10.20;8.00;;;;;;;17.36;69.29;99454.42;104226;1101;80733;-62
2021/05/16 06:45:37;;;;;;;9.70;8.20;;;;;;;17.64;68.81;99459.64;104237;1101;81529;-69
2021/05/16 06:47:44;;;;;;;8.20;7.20;;;;;;;18.28;68.73;99463.23;104241;1101;79364;-68
2021/05/16 06:49:52;;;;;;;8.30;7.40;;;;;;;19.53;67.94;99458.72;104216;1101;80365;-63
2021/05/16 06:51:58;;;;;;;8.50;7.10;;;;;;;20.66;66.83;99459.31;104246;1101;80064;-64
2021/05/16 06:54:06;;;;;;;10.90;9.10;;;;;;;21.42;65.41;99455.22;104221;1100;78689;-62
2021/05/16 06:56:14;;;;;;;10.80;8.00;;;;;;;23.02;63.04;99461.61;104268;1101;80753;-62
2021/05/16 06:58:20;;;;;;;9.90;8.70;;;;;;;24.95;60.39;99464.70;104220;1101;79623;-62
2021/05/16 07:00:30;;;;;;;12.10;8.00;;;;;;;26.04;57.73;99461.77;104249;1101;79954;-68
2021/05/16 07:02:37;;;;;;;9.20;7.90;;;;;;;27.10;55.99;99456.27;104245;1101;81520;-69
2021/05/16 07:04:44;;;;;;;8.00;7.20;;;;;;;27.49;53.66;99467.34;104238;1101;80189;-69
2021/05/16 07:06:50;;;;;;;9.90;7.80;;;;;;;26.27;51.57;99457.92;104256;1101;81511;-69
2021/05/16 07:08:59;;;;;;;9.00;8.10;;;;;;;24.94;52.13;99463.05;104235;1101;80996;-69
2021/05/16 07:11:06;;;;;;;9.00;8.10;;;;;;;23.68;52.57;99459.64;104229;1100;80349;-70
2021/05/16 07:13:12;;;;;;;9.30;8.40;;;;;;;23.69;53.17;99457.70;104217;1101;80098;-69
2021/05/16 07:15:18;;;;;;;9.20;8.20;;;;;;;24.41;52.83;99453.55;104195;1101;81078;-63
2021/05/16 07:17:23;;;;;;;10.80;7.80;;;;;;;25.71;51.72;99446.54;104249;1101;80414;-63
2021/05/16 07:19:31;;;;;;;9.20;8.30;;;;;;;27.03;50.47;99444.80;104235;1101;80913;-69
2021/05/16 07:21:39;;;;;;;8.90;8.10;;;;;;;27.88;47.74;99435.06;104208;1101;80307;-68
2021/05/16 07:23:49;;;;;;;10.30;8.60;;;;;;;28.45;46.66;99447.61;104237;1100;79561;-69
2021/05/16 07:25:59;;;;;;;9.80;8.10;;;;;;;29.10;45.98;99444.45;104272;1101;79091;-68
2021/05/16 07:28:05;;;;;;;9.10;8.20;;;;;;;29.18;41.59;99437.21;104229;1100;80654;-69
2021/05/16 07:30:15;;;;;;;9.80;8.40;;;;;;;29.29;44.10;99441.27;104257;1101;79326;-68
2021/05/16 07:32:21;;;;;;;8.90;8.00;;;;;;;29.13;43.38;99440.19;104241;1101;80546;-69
2021/05/16 07:34:27;;;;;;;8.80;8.00;;;;;;;28.60;42.76;99437.91;104230;1101;79615;-68
2021/05/16 07:36:33;;;;;;;9.50;8.10;;;;;;;28.14;43.11;99440.62;104233;1101;79007;-69
2021/05/16 07:38:38;;;;;;;10.00;8.20;;;;;;;27.38;43.05;99449.34;104212;1100;80068;-70
2021/05/16 07:40:47;;;;;;;9.30;8.30;;;;;;;26.62;43.60;99435.95;104276;1101;80719;-64
2021/05/16 07:42:53;;;;;;;8.40;7.70;;;;;;;26.41;44.67;99432.09;104230;1101;79780;-63
2021/05/16 07:44:59;;;;;;;7.40;6.70;;;;;;;26.50;44.44;99430.20;104253;1101;80100;-69
2021/05/16 07:47:05;;;;;;;7.10;6.20;;;;;;;26.78;44.21;99432.48;104275;1101;79669;-69
2021/05/16 07:49:10;;;;;;;6.80;6.10;;;;;;;25.92;44.35;99433.02;104228;1101;79744;-68
2021/05/16 07:51:16;;;;;;;7.20;6.50;;;;;;;25.48;44.26;99425.48;104256;1100;80405;-70
2021/05/16 07:53:25;;;;;;;7.10;6.00;;;;;;;25.72;45.27;99423.25;104248;1101;81319;-67
2021/05/16 07:55:31;;;;;;;6.60;5.60;;;;;;;26.22;44.54;99419.28;104255;1101;81140;-62
2021/05/16 07:57:37;;;;;;;6.30;5.70;;;;;;;27.38;44.39;99418.00;104266;1101;80056;-63
2021/05/16 07:59:43;;;;;;;6.30;5.80;;;;;;;28.39;43.01;99415.58;104243;1101;80705;-68
2021/05/16 08:01:48;;;;;;;7.70;5.60;;;;;;;28.92;41.75;99417.06;104231;1100;79492;-68
2021/05/16 08:03:54;;;;;;;5.90;5.20;;;;;;;29.41;40.56;99419.11;104230;1101;80926;-69
2021/05/16 08:06:01;;;;;;;6.30;5.40;;;;;;;29.74;39.17;99414.45;104215;1101;79782;-68
2021/05/16 08:08:07;;;;;;;5.80;5.20;;;;;;;29.83;39.30;99417.98;104200;1101;80054;-66
2021/05/16 08:10:15;;;;;;;7.10;6.20;;;;;;;29.79;37.71;99418.98;104237;1101;80315;-68
2021/05/16 08:12:20;;;;;;;6.80;5.30;;;;;;;29.00;37.09;99413.42;104265;1101;79435;-65
2021/05/16 08:14:28;;;;;;;6.10;5.60;;;;;;;28.26;38.27;99408.27;104236;1101;80797;-65
2021/05/16 08:16:37;;;;;;;6.00;4.90;;;;;;;27.59;39.26;99407.11;104229;1100;80932;-64
2021/05/16 08:18:44;;;;;;;6.50;5.00;;;;;;;28.01;40.24;99398.80;104260;1101;80105;-65
2021/05/16 08:20:50;;;;;;;6.60;5.80;;;;;;;27.49;39.32;99397.16;104227;1101;80054;-65
2021/05/16 08:22:56;;;;;;;5.50;4.80;;;;;;;27.02;39.49;99398.83;104249;1101;80156;-65
2021/05/16 08:25:02;;;;;;;4.80;4.40;;;;;;;26.43;40.03;99396.58;104231;1101;80044;-65
2021/05/16 08:27:11;;;;;;;4.60;4.10;;;;;;;25.86;40.13;99399.12;104256;1101;79639;-66
2021/05/16 08:29:17;;;;;;;4.80;4.20;;;;;;;26.13;41.28;99393.48;104186;1101;80612;-66
2021/05/16 08:31:26;;;;;;;4.30;3.90;;;;;;;26.78;41.24;99393.67;104250;1101;79948;-66
2021/05/16 08:33:32;;;;;;;4.40;4.00;;;;;;;27.21;40.12;99396.59;104241;1100;80809;-66
2021/05/16 08:35:38;;;;;;;4.60;4.20;;;;;;;27.61;39.35;99393.75;104208;1100;79587;-63
2021/05/16 08:37:45;;;;;;;5.00;4.20;;;;;;;27.29;38.78;99401.34;104249;1100;80698;-62
2021/05/16 08:39:51;;;;;;;4.30;3.90;;;;;;;26.87;39.04;99388.17;104264;1101;78896;-62
2021/05/16 08:41:57;;;;;;;6.20;4.90;;;;;;;26.68;39.15;99388.40;104208;1101;81090;-62
2021/05/16 08:44:03;;;;;;;5.80;4.50;;;;;;;26.65;39.68;99383.49;104257;1101;80309;-63
2021/05/16 08:46:10;;;;;;;5.40;4.50;;;;;;;26.55;40.13;99402.35;104233;1101;80467;-62
2021/05/16 08:48:16;;;;;;;4.50;4.10;;;;;;;26.74;39.56;99389.07;104239;1100;79652;-63
2021/05/16 08:50:26;;;;;;;5.20;4.40;;;;;;;26.78;40.09;99392.89;104254;1101;80302;-67
2021/05/16 08:52:32;;;;;;;4.70;4.20;;;;;;;26.79;39.60;99386.19;104233;1100;81504;-66
2021/05/16 08:54:38;;;;;;;6.40;4.10;;;;;;;26.49;39.17;99398.08;104247;1101;80523;-63
2021/05/16 08:56:45;;;;;;;4.20;3.80;;;;;;;25.76;39.58;99385.54;104253;1100;80274;-63
2021/05/16 08:58:50;;;;;;;4.60;3.90;;;;;;;25.49;39.80;99386.43;104240;1101;79109;-60
2021/05/16 09:00:56;;;;;;;4.30;3.70;;;;;;;24.98;40.09;99394.18;104248;1101;80710;-66
2021/05/16 09:03:12;;;;;;;4.10;3.60;;;;;;;24.75;40.86;99397.95;104248;1101;80679;-67
2021/05/16 09:05:27;;;;;;;4.90;3.60;;;;;;;24.45;41.05;99394.64;104261;1101;79493;-62
2021/05/16 09:07:34;;;;;;;4.50;3.90;;;;;;;24.59;42.01;99395.48;104253;1101;79935;-61
2021/05/16 09:09:41;;;;;;;3.80;3.40;;;;;;;25.23;41.87;99386.17;104232;1101;79291;-66
2021/05/16 09:11:57;;;;;;;4.40;4.00;;;;;;;25.45;41.14;99392.88;104272;1101;80976;-66
2021/05/16 09:14:03;;;;;;;4.30;3.90;;;;;;;25.17;40.97;99390.17;104257;1101;80593;-63
2021/05/16 09:16:15;;;;;;;5.20;3.40;;;;;;;25.06;41.46;99396.22;104278;1101;80427;-62
2021/05/16 09:18:34;;;;;;;4.20;3.20;;;;;;;25.03;41.48;99392.13;104225;1100;80395;-61
2021/05/16 09:20:40;;;;;;;5.20;4.30;;;;;;;24.79;41.93;99401.73;104238;1101;79796;-62
2021/05/16 09:22:47;;;;;;;5.00;4.10;;;;;;;24.85;42.47;99390.31;104228;1100;81412;-62
2021/05/16 09:25:11;;;;;;;4.40;3.60;;;;;;;24.94;42.64;99393.97;104242;1100;80821;-65
2021/05/16 09:27:25;;;;;;;5.20;3.60;;;;;;;24.94;42.23;99399.49;104289;1101;79636;-68
2021/05/16 09:29:40;;;;;;;4.10;3.60;;;;;;;25.14;41.77;99382.49;104217;1102;79624;-63
2021/05/16 09:31:46;;;;;;;4.80;4.20;;;;;;;25.06;41.35;99397.05;104222;1101;79456;-63
2021/05/16 09:34:04;;;;;;;4.70;3.80;;;;;;;24.97;42.00;99387.83;104233;1100;80816;-63
2021/05/16 09:36:14;;;;;;;4.10;3.40;;;;;;;25.14;41.19;99393.55;104227;1101;78941;-66
2021/05/16 09:38:24;;;;;;;4.20;3.30;;;;;;;24.96;41.99;99390.91;104220;1101;80679;-65
2021/05/16 09:40:32;;;;;;;3.40;3.10;;;;;;;24.90;41.31;99390.20;104246;1101;80241;-66
2021/05/16 09:42:38;;;;;;;3.40;2.70;;;;;;;24.77;41.23;99391.00;104266;1101;81686;-66
2021/05/16 09:44:46;;;;;;;3.90;2.70;;;;;;;24.65;41.16;99390.67;104228;1101;80671;-66
2021/05/16 09:47:19;;;;;;;3.60;2.90;;;;;;;24.50;41.18;99382.70;104238;1101;79328;-66